sensor_id;sensor_type;location;lat;lon;timestamp;P1;durP1;ratioP1;P2;durP2;ratioP2
47353;SDS011;50657;48.830;2.282;2022-10-03T00:02:42;4.57;;;0.60;;
47353;SDS011;50657;48.830;2.282;2022-10-03T00:05:32;0.95;;;0.20;;
47353;SDS011;50657;48.830;2.282;2022-10-03T00:08:08;1.23;;;0.68;;
47353;SDS011;50657;48.830;2.282;2022-10-03T00:10:49;2.33;;;0.45;;
47353;SDS011;50657;48.830;2.282;2022-10-03T00:13:24;1.05;;;0.20;;
47353;SDS011;50657;48.830;2.282;2022-10-03T00:16:01;1.65;;;0.22;;
47353;SDS011;50657;48.830;2.282;2022-10-03T00:18:39;1.67;;;0.20;;
47353;SDS011;50657;48.830;2.282;2022-10-03T00:21:18;1.50;;;0.30;;
47353;SDS011;50657;48.830;2.282;2022-10-03T00:24:03;0.40;;;0.40;;
47353;SDS011;50657;48.830;2.282;2022-10-03T00:26:44;1.15;;;0.10;;
47353;SDS011;50657;48.830;2.282;2022-10-03T00:29:17;0.30;;;0.10;;
47353;SDS011;50657;48.830;2.282;2022-10-03T00:31:59;0.90;;;0.20;;
47353;SDS011;50657;48.830;2.282;2022-10-03T00:34:38;1.98;;;0.20;;
47353;SDS011;50657;48.830;2.282;2022-10-03T00:37:23;0.30;;;0.10;;
47353;SDS011;50657;48.830;2.282;2022-10-03T00:49:19;1.58;;;0.30;;
47353;SDS011;50657;48.830;2.282;2022-10-03T00:52:12;0.47;;;0.43;;
47353;SDS011;50657;48.830;2.282;2022-10-03T00:54:51;0.55;;;0.10;;
47353;SDS011;50657;48.830;2.282;2022-10-03T00:57:34;1.05;;;0.30;;
47353;SDS011;50657;48.830;2.282;2022-10-03T01:00:19;0.30;;;0.28;;
47353;SDS011;50657;48.830;2.282;2022-10-03T01:02:53;3.10;;;0.32;;
47353;SDS011;50657;48.830;2.282;2022-10-03T01:05:42;0.20;;;0.20;;
47353;SDS011;50657;48.830;2.282;2022-10-03T01:08:23;0.52;;;0.43;;
47353;SDS011;50657;48.830;2.282;2022-10-03T01:11:02;0.40;;;0.20;;
47353;SDS011;50657;48.830;2.282;2022-10-03T01:13:37;0.20;;;0.20;;
47353;SDS011;50657;48.830;2.282;2022-10-03T01:16:14;0.82;;;0.20;;
47353;SDS011;50657;48.830;2.282;2022-10-03T01:18:52;1.35;;;0.30;;
47353;SDS011;50657;48.830;2.282;2022-10-03T01:21:30;0.35;;;0.22;;
47353;SDS011;50657;48.830;2.282;2022-10-03T01:24:12;0.50;;;0.30;;
47353;SDS011;50657;48.830;2.282;2022-10-03T01:27:02;0.70;;;0.20;;
47353;SDS011;50657;48.830;2.282;2022-10-03T01:29:37;1.73;;;0.20;;
47353;SDS011;50657;48.830;2.282;2022-10-03T01:32:29;0.52;;;0.10;;
47353;SDS011;50657;48.830;2.282;2022-10-03T01:35:09;1.93;;;0.20;;
47353;SDS011;50657;48.830;2.282;2022-10-03T01:37:47;2.10;;;0.30;;
47353;SDS011;50657;48.830;2.282;2022-10-03T01:40:24;2.63;;;0.10;;
47353;SDS011;50657;48.830;2.282;2022-10-03T01:42:57;0.13;;;0.10;;
47353;SDS011;50657;48.830;2.282;2022-10-03T01:45:36;0.22;;;0.20;;
47353;SDS011;50657;48.830;2.282;2022-10-03T01:48:16;0.50;;;0.10;;
47353;SDS011;50657;48.830;2.282;2022-10-03T01:50:50;0.60;;;0.20;;
47353;SDS011;50657;48.830;2.282;2022-10-03T01:53:28;0.52;;;0.20;;
47353;SDS011;50657;48.830;2.282;2022-10-03T01:56:07;0.82;;;0.10;;
47353;SDS011;50657;48.830;2.282;2022-10-03T01:58:44;1.25;;;0.20;;
47353;SDS011;50657;48.830;2.282;2022-10-03T02:01:23;0.45;;;0.20;;
47353;SDS011;50657;48.830;2.282;2022-10-03T02:03:59;0.63;;;0.10;;
47353;SDS011;50657;48.830;2.282;2022-10-03T02:06:34;0.88;;;0.20;;
47353;SDS011;50657;48.830;2.282;2022-10-03T02:09:09;3.33;;;0.40;;
47353;SDS011;50657;48.830;2.282;2022-10-03T02:11:56;0.30;;;0.20;;
47353;SDS011;50657;48.830;2.282;2022-10-03T02:14:34;0.43;;;0.13;;
47353;SDS011;50657;48.830;2.282;2022-10-03T02:17:17;0.77;;;0.32;;
47353;SDS011;50657;48.830;2.282;2022-10-03T02:19:53;1.20;;;0.20;;
47353;SDS011;50657;48.830;2.282;2022-10-03T02:22:30;0.77;;;0.47;;
47353;SDS011;50657;48.830;2.282;2022-10-03T02:31:26;0.73;;;0.20;;
47353;SDS011;50657;48.830;2.282;2022-10-03T02:34:24;2.03;;;0.20;;
47353;SDS011;50657;48.830;2.282;2022-10-03T02:40:00;0.98;;;0.10;;
47353;SDS011;50657;48.830;2.282;2022-10-03T02:43:10;0.95;;;0.15;;
47353;SDS011;50657;48.830;2.282;2022-10-03T02:46:09;0.22;;;0.20;;
47353;SDS011;50657;48.830;2.282;2022-10-03T02:49:03;0.20;;;0.15;;
47353;SDS011;50657;48.830;2.282;2022-10-03T02:52:17;0.45;;;0.10;;
47353;SDS011;50657;48.830;2.282;2022-10-03T02:55:26;0.63;;;0.20;;
47353;SDS011;50657;48.830;2.282;2022-10-03T03:01:35;0.73;;;0.20;;
47353;SDS011;50657;48.830;2.282;2022-10-03T03:04:40;1.00;;;0.20;;
47353;SDS011;50657;48.830;2.282;2022-10-03T03:07:31;0.50;;;0.10;;
47353;SDS011;50657;48.830;2.282;2022-10-03T03:10:35;0.40;;;0.20;;
47353;SDS011;50657;48.830;2.282;2022-10-03T03:16:34;1.55;;;0.65;;
47353;SDS011;50657;48.830;2.282;2022-10-03T03:19:15;0.38;;;0.15;;
47353;SDS011;50657;48.830;2.282;2022-10-03T03:21:59;0.55;;;0.55;;
47353;SDS011;50657;48.830;2.282;2022-10-03T03:27:33;0.63;;;0.60;;
47353;SDS011;50657;48.830;2.282;2022-10-03T03:30:09;1.20;;;0.82;;
47353;SDS011;50657;48.830;2.282;2022-10-03T03:32:43;1.42;;;0.30;;
47353;SDS011;50657;48.830;2.282;2022-10-03T03:35:24;0.45;;;0.10;;
47353;SDS011;50657;48.830;2.282;2022-10-03T03:38:05;1.38;;;0.20;;
47353;SDS011;50657;48.830;2.282;2022-10-03T03:40:45;0.32;;;0.32;;
47353;SDS011;50657;48.830;2.282;2022-10-03T03:43:32;0.43;;;0.22;;
47353;SDS011;50657;48.830;2.282;2022-10-03T03:46:13;0.30;;;0.30;;
47353;SDS011;50657;48.830;2.282;2022-10-03T03:48:51;1.10;;;0.55;;
47353;SDS011;50657;48.830;2.282;2022-10-03T03:51:41;0.47;;;0.30;;
47353;SDS011;50657;48.830;2.282;2022-10-03T03:54:27;1.05;;;0.65;;
47353;SDS011;50657;48.830;2.282;2022-10-03T03:57:22;0.73;;;0.52;;
47353;SDS011;50657;48.830;2.282;2022-10-03T04:00:07;1.65;;;0.95;;
47353;SDS011;50657;48.830;2.282;2022-10-03T04:02:44;1.27;;;0.43;;
47353;SDS011;50657;48.830;2.282;2022-10-03T04:05:26;2.67;;;0.53;;
47353;SDS011;50657;48.830;2.282;2022-10-03T04:08:17;2.70;;;0.40;;
47353;SDS011;50657;48.830;2.282;2022-10-03T04:11:04;1.50;;;0.57;;
47353;SDS011;50657;48.830;2.282;2022-10-03T04:13:54;0.55;;;0.55;;
47353;SDS011;50657;48.830;2.282;2022-10-03T04:19:48;0.55;;;0.50;;
47353;SDS011;50657;48.830;2.282;2022-10-03T04:22:35;0.73;;;0.32;;
47353;SDS011;50657;48.830;2.282;2022-10-03T04:25:14;2.70;;;0.30;;
47353;SDS011;50657;48.830;2.282;2022-10-03T04:31:04;1.20;;;0.20;;
47353;SDS011;50657;48.830;2.282;2022-10-03T04:33:53;2.38;;;0.20;;
47353;SDS011;50657;48.830;2.282;2022-10-03T04:36:46;0.95;;;0.20;;
47353;SDS011;50657;48.830;2.282;2022-10-03T04:39:34;0.90;;;0.40;;
47353;SDS011;50657;48.830;2.282;2022-10-03T04:42:17;2.05;;;0.50;;
47353;SDS011;50657;48.830;2.282;2022-10-03T04:44:57;0.60;;;0.43;;
47353;SDS011;50657;48.830;2.282;2022-10-03T04:47:46;1.00;;;0.30;;
47353;SDS011;50657;48.830;2.282;2022-10-03T04:50:27;1.30;;;0.20;;
47353;SDS011;50657;48.830;2.282;2022-10-03T04:53:05;0.68;;;0.20;;
47353;SDS011;50657;48.830;2.282;2022-10-03T04:55:44;0.45;;;0.45;;
47353;SDS011;50657;48.830;2.282;2022-10-03T04:58:17;0.68;;;0.63;;
47353;SDS011;50657;48.830;2.282;2022-10-03T05:01:01;1.25;;;0.47;;
47353;SDS011;50657;48.830;2.282;2022-10-03T05:03:39;1.85;;;0.40;;
47353;SDS011;50657;48.830;2.282;2022-10-03T05:06:26;1.95;;;0.40;;
47353;SDS011;50657;48.830;2.282;2022-10-03T05:09:05;1.10;;;0.98;;
47353;SDS011;50657;48.830;2.282;2022-10-03T05:11:48;0.93;;;0.30;;
47353;SDS011;50657;48.830;2.282;2022-10-03T05:14:25;1.25;;;0.30;;
47353;SDS011;50657;48.830;2.282;2022-10-03T05:17:06;2.17;;;0.80;;
47353;SDS011;50657;48.830;2.282;2022-10-03T05:19:52;0.60;;;0.60;;
47353;SDS011;50657;48.830;2.282;2022-10-03T05:22:31;1.35;;;1.30;;
47353;SDS011;50657;48.830;2.282;2022-10-03T05:25:15;1.48;;;0.55;;
47353;SDS011;50657;48.830;2.282;2022-10-03T05:27:53;1.02;;;0.52;;
47353;SDS011;50657;48.830;2.282;2022-10-03T05:30:32;1.52;;;0.52;;
47353;SDS011;50657;48.830;2.282;2022-10-03T05:33:10;2.35;;;0.65;;
47353;SDS011;50657;48.830;2.282;2022-10-03T05:35:47;0.70;;;0.57;;
47353;SDS011;50657;48.830;2.282;2022-10-03T05:38:38;1.70;;;0.70;;
47353;SDS011;50657;48.830;2.282;2022-10-03T05:41:24;0.95;;;0.70;;
47353;SDS011;50657;48.830;2.282;2022-10-03T05:43:59;1.55;;;0.57;;
47353;SDS011;50657;48.830;2.282;2022-10-03T05:49:26;0.98;;;0.80;;
47353;SDS011;50657;48.830;2.282;2022-10-03T05:52:21;0.80;;;0.80;;
47353;SDS011;50657;48.830;2.282;2022-10-03T05:55:15;1.10;;;1.05;;
47353;SDS011;50657;48.830;2.282;2022-10-03T05:58:03;1.25;;;0.82;;
47353;SDS011;50657;48.830;2.282;2022-10-03T06:00:54;1.98;;;1.45;;
47353;SDS011;50657;48.830;2.282;2022-10-03T06:03:41;4.10;;;1.60;;
47353;SDS011;50657;48.830;2.282;2022-10-03T06:06:33;1.85;;;1.17;;
47353;SDS011;50657;48.830;2.282;2022-10-03T06:09:21;1.88;;;1.60;;
47353;SDS011;50657;48.830;2.282;2022-10-03T06:12:18;1.55;;;1.45;;
47353;SDS011;50657;48.830;2.282;2022-10-03T06:15:01;2.00;;;1.35;;
47353;SDS011;50657;48.830;2.282;2022-10-03T06:20:41;5.55;;;1.58;;
47353;SDS011;50657;48.830;2.282;2022-10-03T06:44:49;0.75;;;0.50;;
47353;SDS011;50657;48.830;2.282;2022-10-03T06:47:40;1.17;;;1.13;;
47353;SDS011;50657;48.830;2.282;2022-10-03T06:53:28;1.92;;;1.27;;
47353;SDS011;50657;48.830;2.282;2022-10-03T06:59:32;0.85;;;0.82;;
47353;SDS011;50657;48.830;2.282;2022-10-03T07:02:23;0.80;;;0.80;;
47353;SDS011;50657;48.830;2.282;2022-10-03T07:11:32;1.75;;;0.93;;
47353;SDS011;50657;48.830;2.282;2022-10-03T07:14:34;1.48;;;0.77;;
47353;SDS011;50657;48.830;2.282;2022-10-03T07:17:30;2.55;;;1.08;;
47353;SDS011;50657;48.830;2.282;2022-10-03T07:20:10;0.80;;;0.77;;
47353;SDS011;50657;48.830;2.282;2022-10-03T07:23:09;0.90;;;0.68;;
47353;SDS011;50657;48.830;2.282;2022-10-03T07:26:13;1.10;;;0.55;;
47353;SDS011;50657;48.830;2.282;2022-10-03T07:29:21;1.23;;;0.80;;
47353;SDS011;50657;48.830;2.282;2022-10-03T07:32:07;0.38;;;0.32;;
47353;SDS011;50657;48.830;2.282;2022-10-03T07:35:15;0.60;;;0.40;;
47353;SDS011;50657;48.830;2.282;2022-10-03T07:44:33;1.35;;;0.30;;
47353;SDS011;50657;48.830;2.282;2022-10-03T07:50:56;2.20;;;0.93;;
47353;SDS011;50657;48.830;2.282;2022-10-03T07:53:46;0.28;;;0.20;;
47353;SDS011;50657;48.830;2.282;2022-10-03T07:56:42;0.47;;;0.20;;
47353;SDS011;50657;48.830;2.282;2022-10-03T07:59:35;0.47;;;0.35;;
47353;SDS011;50657;48.830;2.282;2022-10-03T08:02:52;3.92;;;0.40;;
47353;SDS011;50657;48.830;2.282;2022-10-03T08:05:44;0.85;;;0.30;;
47353;SDS011;50657;48.830;2.282;2022-10-03T08:11:30;0.43;;;0.43;;
47353;SDS011;50657;48.830;2.282;2022-10-03T08:14:14;1.35;;;0.20;;
47353;SDS011;50657;48.830;2.282;2022-10-03T08:16:55;1.85;;;0.45;;
47353;SDS011;50657;48.830;2.282;2022-10-03T08:19:49;0.98;;;0.47;;
47353;SDS011;50657;48.830;2.282;2022-10-03T08:28:18;0.55;;;0.30;;
47353;SDS011;50657;48.830;2.282;2022-10-03T08:31:10;0.93;;;0.82;;
47353;SDS011;50657;48.830;2.282;2022-10-03T08:34:20;0.80;;;0.65;;
47353;SDS011;50657;48.830;2.282;2022-10-03T08:37:22;0.82;;;0.43;;
47353;SDS011;50657;48.830;2.282;2022-10-03T08:43:24;0.30;;;0.30;;
47353;SDS011;50657;48.830;2.282;2022-10-03T08:49:22;0.98;;;0.20;;
47353;SDS011;50657;48.830;2.282;2022-10-03T08:52:12;1.35;;;0.30;;
47353;SDS011;50657;48.830;2.282;2022-10-03T08:54:55;0.50;;;0.40;;
47353;SDS011;50657;48.830;2.282;2022-10-03T08:57:56;1.17;;;0.47;;
47353;SDS011;50657;48.830;2.282;2022-10-03T09:00:42;3.30;;;0.35;;
47353;SDS011;50657;48.830;2.282;2022-10-03T09:03:38;3.80;;;0.35;;
47353;SDS011;50657;48.830;2.282;2022-10-03T09:06:53;2.10;;;0.60;;
47353;SDS011;50657;48.830;2.282;2022-10-03T09:09:46;1.08;;;0.30;;
47353;SDS011;50657;48.830;2.282;2022-10-03T09:15:55;0.52;;;0.35;;
47353;SDS011;50657;48.830;2.282;2022-10-03T09:18:51;1.90;;;0.73;;
47353;SDS011;50657;48.830;2.282;2022-10-03T09:24:41;0.50;;;0.50;;
47353;SDS011;50657;48.830;2.282;2022-10-03T09:27:36;2.30;;;0.70;;
47353;SDS011;50657;48.830;2.282;2022-10-03T09:30:36;1.13;;;0.70;;
47353;SDS011;50657;48.830;2.282;2022-10-03T09:39:46;3.60;;;1.65;;
47353;SDS011;50657;48.830;2.282;2022-10-03T09:42:54;1.37;;;1.27;;
47353;SDS011;50657;48.830;2.282;2022-10-03T09:48:37;1.73;;;0.75;;
47353;SDS011;50657;48.830;2.282;2022-10-03T09:51:32;3.60;;;1.20;;
47353;SDS011;50657;48.830;2.282;2022-10-03T09:57:21;0.82;;;0.82;;
47353;SDS011;50657;48.830;2.282;2022-10-03T10:00:19;3.67;;;0.82;;
47353;SDS011;50657;48.830;2.282;2022-10-03T10:06:01;6.28;;;1.15;;
47353;SDS011;50657;48.830;2.282;2022-10-03T10:12:29;1.60;;;1.05;;
47353;SDS011;50657;48.830;2.282;2022-10-03T10:15:30;1.90;;;1.52;;
47353;SDS011;50657;48.830;2.282;2022-10-03T10:18:35;1.50;;;1.40;;
47353;SDS011;50657;48.830;2.282;2022-10-03T10:21:36;3.63;;;1.95;;
47353;SDS011;50657;48.830;2.282;2022-10-03T10:27:41;1.33;;;1.15;;
47353;SDS011;50657;48.830;2.282;2022-10-03T10:30:48;1.65;;;1.00;;
47353;SDS011;50657;48.830;2.282;2022-10-03T10:33:46;5.32;;;0.82;;
47353;SDS011;50657;48.830;2.282;2022-10-03T10:40:02;4.32;;;2.08;;
47353;SDS011;50657;48.830;2.282;2022-10-03T10:52:36;11.45;;;3.45;;
47353;SDS011;50657;48.830;2.282;2022-10-03T10:55:30;10.18;;;4.03;;
47353;SDS011;50657;48.830;2.282;2022-10-03T10:58:48;13.57;;;4.13;;
47353;SDS011;50657;48.830;2.282;2022-10-03T11:02:11;11.63;;;3.65;;
47353;SDS011;50657;48.830;2.282;2022-10-03T11:05:15;7.65;;;2.95;;
47353;SDS011;50657;48.830;2.282;2022-10-03T11:17:42;4.97;;;2.42;;
47353;SDS011;50657;48.830;2.282;2022-10-03T11:23:34;4.63;;;1.20;;
47353;SDS011;50657;48.830;2.282;2022-10-03T11:29:39;2.10;;;1.63;;
47353;SDS011;50657;48.830;2.282;2022-10-03T11:32:47;2.65;;;1.10;;
47353;SDS011;50657;48.830;2.282;2022-10-03T11:35:44;5.10;;;1.85;;
47353;SDS011;50657;48.830;2.282;2022-10-03T11:38:37;4.65;;;2.75;;
47353;SDS011;50657;48.830;2.282;2022-10-03T11:41:14;6.40;;;2.30;;
47353;SDS011;50657;48.830;2.282;2022-10-03T11:44:05;2.17;;;1.40;;
47353;SDS011;50657;48.830;2.282;2022-10-03T11:46:46;3.38;;;1.92;;
47353;SDS011;50657;48.830;2.282;2022-10-03T11:49:30;3.00;;;2.15;;
47353;SDS011;50657;48.830;2.282;2022-10-03T11:52:12;7.45;;;2.22;;
47353;SDS011;50657;48.830;2.282;2022-10-03T11:54:55;6.10;;;2.25;;
47353;SDS011;50657;48.830;2.282;2022-10-03T11:57:33;4.75;;;2.03;;
47353;SDS011;50657;48.830;2.282;2022-10-03T12:00:04;4.43;;;2.05;;
47353;SDS011;50657;48.830;2.282;2022-10-03T12:05:40;3.03;;;1.95;;
47353;SDS011;50657;48.830;2.282;2022-10-03T12:08:17;5.97;;;1.83;;
47353;SDS011;50657;48.830;2.282;2022-10-03T12:11:06;6.22;;;1.63;;
47353;SDS011;50657;48.830;2.282;2022-10-03T12:13:42;5.35;;;1.40;;
47353;SDS011;50657;48.830;2.282;2022-10-03T12:16:27;3.58;;;1.40;;
47353;SDS011;50657;48.830;2.282;2022-10-03T12:19:01;4.03;;;1.15;;
47353;SDS011;50657;48.830;2.282;2022-10-03T12:21:39;1.40;;;0.85;;
47353;SDS011;50657;48.830;2.282;2022-10-03T12:24:23;2.33;;;1.30;;
47353;SDS011;50657;48.830;2.282;2022-10-03T12:26:59;3.35;;;1.42;;
47353;SDS011;50657;48.830;2.282;2022-10-03T12:29:32;3.88;;;1.83;;
47353;SDS011;50657;48.830;2.282;2022-10-03T12:32:09;3.20;;;1.27;;
47353;SDS011;50657;48.830;2.282;2022-10-03T12:34:47;9.82;;;1.63;;
47353;SDS011;50657;48.830;2.282;2022-10-03T12:40:15;5.28;;;2.38;;
47353;SDS011;50657;48.830;2.282;2022-10-03T12:42:51;7.68;;;0.80;;
47353;SDS011;50657;48.830;2.282;2022-10-03T12:45:29;4.82;;;0.93;;
47353;SDS011;50657;48.830;2.282;2022-10-03T12:48:06;3.85;;;1.70;;
47353;SDS011;50657;48.830;2.282;2022-10-03T12:50:58;1.55;;;0.80;;
47353;SDS011;50657;48.830;2.282;2022-10-03T12:53:30;1.95;;;0.73;;
47353;SDS011;50657;48.830;2.282;2022-10-03T12:56:10;3.20;;;1.05;;
47353;SDS011;50657;48.830;2.282;2022-10-03T12:58:46;2.17;;;0.60;;
47353;SDS011;50657;48.830;2.282;2022-10-03T13:01:19;2.33;;;0.50;;
47353;SDS011;50657;48.830;2.282;2022-10-03T13:03:54;3.42;;;0.80;;
47353;SDS011;50657;48.830;2.282;2022-10-03T13:06:34;1.30;;;0.38;;
47353;SDS011;50657;48.830;2.282;2022-10-03T13:09:10;4.63;;;0.50;;
47353;SDS011;50657;48.830;2.282;2022-10-03T13:11:47;4.72;;;0.88;;
47353;SDS011;50657;48.830;2.282;2022-10-03T13:14:28;0.90;;;0.45;;
47353;SDS011;50657;48.830;2.282;2022-10-03T13:17:07;6.05;;;0.40;;
47353;SDS011;50657;48.830;2.282;2022-10-03T13:19:46;6.32;;;0.50;;
47353;SDS011;50657;48.830;2.282;2022-10-03T13:22:32;3.67;;;0.60;;
47353;SDS011;50657;48.830;2.282;2022-10-03T13:25:09;2.15;;;1.02;;
47353;SDS011;50657;48.830;2.282;2022-10-03T13:27:44;4.32;;;1.52;;
47353;SDS011;50657;48.830;2.282;2022-10-03T13:30:18;3.92;;;0.73;;
47353;SDS011;50657;48.830;2.282;2022-10-03T13:32:49;2.72;;;0.55;;
47353;SDS011;50657;48.830;2.282;2022-10-03T13:35:21;3.35;;;0.55;;
47353;SDS011;50657;48.830;2.282;2022-10-03T13:38:15;1.80;;;0.50;;
47353;SDS011;50657;48.830;2.282;2022-10-03T13:41:20;0.73;;;0.40;;
47353;SDS011;50657;48.830;2.282;2022-10-03T13:43:57;1.75;;;0.73;;
47353;SDS011;50657;48.830;2.282;2022-10-03T13:46:30;1.02;;;0.40;;
47353;SDS011;50657;48.830;2.282;2022-10-03T13:49:03;1.13;;;0.47;;
47353;SDS011;50657;48.830;2.282;2022-10-03T13:51:40;2.13;;;0.43;;
47353;SDS011;50657;48.830;2.282;2022-10-03T13:54:19;0.73;;;0.45;;
47353;SDS011;50657;48.830;2.282;2022-10-03T13:57:02;1.63;;;0.40;;
47353;SDS011;50657;48.830;2.282;2022-10-03T13:59:42;2.42;;;0.35;;
47353;SDS011;50657;48.830;2.282;2022-10-03T14:02:23;4.20;;;0.80;;
47353;SDS011;50657;48.830;2.282;2022-10-03T14:07:58;0.75;;;0.40;;
47353;SDS011;50657;48.830;2.282;2022-10-03T14:10:45;2.17;;;0.73;;
47353;SDS011;50657;48.830;2.282;2022-10-03T14:13:29;4.38;;;0.50;;
47353;SDS011;50657;48.830;2.282;2022-10-03T14:16:09;2.25;;;0.40;;
47353;SDS011;50657;48.830;2.282;2022-10-03T14:18:44;5.00;;;0.40;;
47353;SDS011;50657;48.830;2.282;2022-10-03T14:21:34;2.10;;;0.60;;
47353;SDS011;50657;48.830;2.282;2022-10-03T14:24:18;8.65;;;0.82;;
47353;SDS011;50657;48.830;2.282;2022-10-03T14:27:05;3.97;;;0.52;;
47353;SDS011;50657;48.830;2.282;2022-10-03T14:29:44;3.60;;;0.88;;
47353;SDS011;50657;48.830;2.282;2022-10-03T14:32:22;10.70;;;2.20;;
47353;SDS011;50657;48.830;2.282;2022-10-03T14:34:57;0.90;;;0.45;;
47353;SDS011;50657;48.830;2.282;2022-10-03T14:37:32;10.82;;;0.52;;
47353;SDS011;50657;48.830;2.282;2022-10-03T14:40:10;2.33;;;0.85;;
47353;SDS011;50657;48.830;2.282;2022-10-03T14:42:47;4.05;;;0.30;;
47353;SDS011;50657;48.830;2.282;2022-10-03T14:45:24;3.35;;;1.25;;
47353;SDS011;50657;48.830;2.282;2022-10-03T14:47:56;3.70;;;1.50;;
47353;SDS011;50657;48.830;2.282;2022-10-03T14:50:29;2.97;;;0.25;;
47353;SDS011;50657;48.830;2.282;2022-10-03T14:52:59;1.38;;;0.40;;
47353;SDS011;50657;48.830;2.282;2022-10-03T14:55:30;3.35;;;0.32;;
47353;SDS011;50657;48.830;2.282;2022-10-03T14:58:01;4.13;;;0.50;;
47353;SDS011;50657;48.830;2.282;2022-10-03T15:00:33;2.00;;;0.38;;
47353;SDS011;50657;48.830;2.282;2022-10-03T15:08:57;2.78;;;0.40;;
47353;SDS011;50657;48.830;2.282;2022-10-03T15:11:28;4.95;;;0.38;;
47353;SDS011;50657;48.830;2.282;2022-10-03T15:14:01;2.53;;;0.40;;
47353;SDS011;50657;48.830;2.282;2022-10-03T15:16:32;0.80;;;0.22;;
47353;SDS011;50657;48.830;2.282;2022-10-03T15:19:03;1.25;;;0.30;;
47353;SDS011;50657;48.830;2.282;2022-10-03T15:21:34;1.63;;;0.47;;
47353;SDS011;50657;48.830;2.282;2022-10-03T15:24:02;1.50;;;0.35;;
47353;SDS011;50657;48.830;2.282;2022-10-03T15:26:32;1.73;;;0.30;;
47353;SDS011;50657;48.830;2.282;2022-10-03T15:29:03;2.53;;;0.35;;
47353;SDS011;50657;48.830;2.282;2022-10-03T15:31:33;1.23;;;0.13;;
47353;SDS011;50657;48.830;2.282;2022-10-03T15:34:03;2.83;;;0.40;;
47353;SDS011;50657;48.830;2.282;2022-10-03T15:36:33;2.33;;;0.30;;
47353;SDS011;50657;48.830;2.282;2022-10-03T15:39:04;2.35;;;0.40;;
47353;SDS011;50657;48.830;2.282;2022-10-03T15:41:47;4.68;;;0.73;;
47353;SDS011;50657;48.830;2.282;2022-10-03T15:44:20;0.90;;;0.47;;
47353;SDS011;50657;48.830;2.282;2022-10-03T15:46:53;3.50;;;0.52;;
47353;SDS011;50657;48.830;2.282;2022-10-03T15:49:26;3.83;;;0.50;;
47353;SDS011;50657;48.830;2.282;2022-10-03T15:51:57;0.65;;;0.20;;
47353;SDS011;50657;48.830;2.282;2022-10-03T15:54:43;0.63;;;0.35;;
47353;SDS011;50657;48.830;2.282;2022-10-03T15:57:16;3.63;;;0.40;;
47353;SDS011;50657;48.830;2.282;2022-10-03T15:59:50;1.65;;;0.68;;
47353;SDS011;50657;48.830;2.282;2022-10-03T16:02:24;2.70;;;0.35;;
47353;SDS011;50657;48.830;2.282;2022-10-03T16:04:56;2.58;;;0.32;;
47353;SDS011;50657;48.830;2.282;2022-10-03T16:07:26;2.58;;;0.95;;
47353;SDS011;50657;48.830;2.282;2022-10-03T16:10:04;2.63;;;0.40;;
47353;SDS011;50657;48.830;2.282;2022-10-03T16:15:47;1.23;;;0.40;;
47353;SDS011;50657;48.830;2.282;2022-10-03T16:21:41;1.15;;;0.30;;
47353;SDS011;50657;48.830;2.282;2022-10-03T16:24:15;1.85;;;0.30;;
47353;SDS011;50657;48.830;2.282;2022-10-03T16:26:50;3.33;;;0.38;;
47353;SDS011;50657;48.830;2.282;2022-10-03T16:29:21;7.97;;;0.38;;
47353;SDS011;50657;48.830;2.282;2022-10-03T16:31:53;0.88;;;0.30;;
47353;SDS011;50657;48.830;2.282;2022-10-03T16:34:24;1.80;;;0.30;;
47353;SDS011;50657;48.830;2.282;2022-10-03T16:36:55;5.43;;;0.55;;
47353;SDS011;50657;48.830;2.282;2022-10-03T16:39:26;2.25;;;0.40;;
47353;SDS011;50657;48.830;2.282;2022-10-03T16:41:57;2.25;;;0.45;;
47353;SDS011;50657;48.830;2.282;2022-10-03T16:44:29;3.25;;;0.40;;
47353;SDS011;50657;48.830;2.282;2022-10-03T16:47:05;1.52;;;0.30;;
47353;SDS011;50657;48.830;2.282;2022-10-03T16:49:37;9.27;;;0.50;;
47353;SDS011;50657;48.830;2.282;2022-10-03T16:52:28;3.60;;;0.80;;
47353;SDS011;50657;48.830;2.282;2022-10-03T16:55:00;3.75;;;0.30;;
47353;SDS011;50657;48.830;2.282;2022-10-03T16:57:31;3.20;;;0.30;;
47353;SDS011;50657;48.830;2.282;2022-10-03T17:00:12;5.60;;;1.17;;
47353;SDS011;50657;48.830;2.282;2022-10-03T17:02:43;1.13;;;0.25;;
47353;SDS011;50657;48.830;2.282;2022-10-03T17:05:12;7.68;;;1.02;;
47353;SDS011;50657;48.830;2.282;2022-10-03T17:07:41;2.92;;;0.77;;
47353;SDS011;50657;48.830;2.282;2022-10-03T17:10:22;3.00;;;0.98;;
47353;SDS011;50657;48.830;2.282;2022-10-03T17:13:02;3.05;;;1.27;;
47353;SDS011;50657;48.830;2.282;2022-10-03T17:15:37;6.18;;;1.35;;
47353;SDS011;50657;48.830;2.282;2022-10-03T17:18:19;3.72;;;1.38;;
47353;SDS011;50657;48.830;2.282;2022-10-03T17:20:51;4.43;;;1.50;;
47353;SDS011;50657;48.830;2.282;2022-10-03T17:23:24;1.77;;;1.35;;
47353;SDS011;50657;48.830;2.282;2022-10-03T17:25:59;2.10;;;1.15;;
47353;SDS011;50657;48.830;2.282;2022-10-03T17:28:33;6.22;;;1.23;;
47353;SDS011;50657;48.830;2.282;2022-10-03T17:31:04;2.50;;;1.80;;
47353;SDS011;50657;48.830;2.282;2022-10-03T17:33:41;5.45;;;1.45;;
47353;SDS011;50657;48.830;2.282;2022-10-03T17:36:26;1.67;;;1.30;;
47353;SDS011;50657;48.830;2.282;2022-10-03T17:39:08;6.28;;;1.52;;
47353;SDS011;50657;48.830;2.282;2022-10-03T17:41:43;5.70;;;1.50;;
47353;SDS011;50657;48.830;2.282;2022-10-03T17:44:18;1.85;;;1.45;;
47353;SDS011;50657;48.830;2.282;2022-10-03T17:46:57;4.10;;;1.45;;
47353;SDS011;50657;48.830;2.282;2022-10-03T17:49:38;1.63;;;1.30;;
47353;SDS011;50657;48.830;2.282;2022-10-03T17:52:14;5.30;;;1.75;;
47353;SDS011;50657;48.830;2.282;2022-10-03T17:54:45;5.55;;;2.03;;
47353;SDS011;50657;48.830;2.282;2022-10-03T17:57:15;5.75;;;1.70;;
47353;SDS011;50657;48.830;2.282;2022-10-03T17:59:49;2.72;;;1.58;;
47353;SDS011;50657;48.830;2.282;2022-10-03T18:02:22;5.70;;;3.28;;
47353;SDS011;50657;48.830;2.282;2022-10-03T18:04:58;5.93;;;2.17;;
47353;SDS011;50657;48.830;2.282;2022-10-03T18:07:31;7.55;;;2.08;;
47353;SDS011;50657;48.830;2.282;2022-10-03T18:10:00;2.65;;;1.63;;
47353;SDS011;50657;48.830;2.282;2022-10-03T18:12:30;3.88;;;1.77;;
47353;SDS011;50657;48.830;2.282;2022-10-03T18:21:15;1.80;;;1.70;;
47353;SDS011;50657;48.830;2.282;2022-10-03T18:24:00;5.03;;;3.05;;
47353;SDS011;50657;48.830;2.282;2022-10-03T18:26:39;6.35;;;3.00;;
47353;SDS011;50657;48.830;2.282;2022-10-03T18:29:18;9.88;;;3.13;;
47353;SDS011;50657;48.830;2.282;2022-10-03T18:31:53;5.75;;;2.78;;
47353;SDS011;50657;48.830;2.282;2022-10-03T18:34:24;8.52;;;3.33;;
47353;SDS011;50657;48.830;2.282;2022-10-03T18:36:59;3.70;;;3.13;;
47353;SDS011;50657;48.830;2.282;2022-10-03T18:39:41;5.78;;;2.97;;
47353;SDS011;50657;48.830;2.282;2022-10-03T18:42:11;8.77;;;3.63;;
47353;SDS011;50657;48.830;2.282;2022-10-03T18:44:48;8.50;;;3.03;;
47353;SDS011;50657;48.830;2.282;2022-10-03T18:47:16;8.25;;;3.33;;
47353;SDS011;50657;48.830;2.282;2022-10-03T18:49:51;11.90;;;4.97;;
47353;SDS011;50657;48.830;2.282;2022-10-03T18:52:29;11.18;;;3.95;;
47353;SDS011;50657;48.830;2.282;2022-10-03T18:55:03;18.63;;;5.05;;
47353;SDS011;50657;48.830;2.282;2022-10-03T18:57:41;8.52;;;4.93;;
47353;SDS011;50657;48.830;2.282;2022-10-03T19:00:14;8.13;;;4.28;;
47353;SDS011;50657;48.830;2.282;2022-10-03T19:02:45;13.85;;;5.65;;
47353;SDS011;50657;48.830;2.282;2022-10-03T19:05:18;10.38;;;5.30;;
47353;SDS011;50657;48.830;2.282;2022-10-03T19:07:50;11.23;;;4.53;;
47353;SDS011;50657;48.830;2.282;2022-10-03T19:10:23;53.55;;;19.17;;
47353;SDS011;50657;48.830;2.282;2022-10-03T19:13:03;33.55;;;9.93;;
47353;SDS011;50657;48.830;2.282;2022-10-03T19:15:48;25.10;;;8.95;;
47353;SDS011;50657;48.830;2.282;2022-10-03T19:18:32;21.35;;;8.10;;
47353;SDS011;50657;48.830;2.282;2022-10-03T19:21:08;21.98;;;7.85;;
47353;SDS011;50657;48.830;2.282;2022-10-03T19:26:17;18.40;;;8.20;;